Chicago, IL

7:51 AM CDT on July 26, 2016 (GMT -0500)
West Loop | | Change Station

Elev 571 ft 41.88 °N, 87.64 °W | Updated 3 seconds ago

Partly Cloudy
Partly Cloudy
80.1 °F
Feels Like 81 °F
N
0.0
Wind Variable Wind from North

Today
High -- | Low -- °F
--% Chance of Precip.
Yesterday
High -- | Low -- °F
Precip. -- in
Pressure 30.03 in
Visibility 10.0 miles
Clouds Few 5000 ft
Few 25000 ft
Heat Index 81 °F
Dew Point 61 °F
Humidity 52%
Rainfall 0.50 in
Snow Depth Not available.
5:38 AM 8:14 PM
Waning Gibbous, 55% visible
METAR KMDW 261153Z 00000KT 10SM FEW050 FEW250 24/19 A3006 RMK AO2 SLP169 T02440194 10256 20228 53011 $
Pressure 30.03 in
Visibility 10.0 miles
Clouds Few 5000 ft
Few 25000 ft
Heat Index 81 °F
Dew Point 61 °F
Humidity 52%
Rainfall 0.50 in
Snow Depth Not available.
5:38 AM 8:14 PM
Waning Gibbous, 55% visible
METAR KMDW 261153Z 00000KT 10SM FEW050 FEW250 24/19 A3006 RMK AO2 SLP169 T02440194 10256 20228 53011 $

10-Day Weather Forecast

Almanac

Astronomy

Jul. 26, 2016 Rise Set
Actual Time
Civil Twilight
Nautical Twilight
Astronomical Twilight
Moon
Length of Visible Light
Length of Day
Tomorrow will be .
, % of the Moon is Illuminated

Today's Extremes

State Highs State Lows

Community

WunderPhotos

Upload Photos

1,927,581 photos uploaded!

WunderBlog® & News

Nearby

Air Quality

  Air Quality AQ Index Pollutant
Not available.

Snow Depth

Station Depth Elevation

Earthquake Activity

City Distance Mag. Time & Date
Minimum magnitude displayed is 2.5.

Coastal Water Temperatures

Place Temperature

Stations

Nearby Weather Stations

Station Location Temp. Windchill Dew Point Humidity Wind Precip. Elev Updated Type
                   

Watches & Warnings

There are currently no watches in effect.